createdAt,value
2022-08-01T00:00:18.397Z,23.19
2022-08-01T00:01:50.225Z,23.19
2022-08-01T00:03:23.294Z,23.21
2022-08-01T00:04:55.181Z,23.22
2022-08-01T00:06:27.033Z,23.24
2022-08-01T00:07:58.795Z,23.24
2022-08-01T00:09:30.568Z,23.21
2022-08-01T00:11:03.042Z,23.16
2022-08-01T00:12:35.062Z,23.08
2022-08-01T00:14:07.079Z,22.95
2022-08-01T00:15:38.830Z,22.84
2022-08-01T00:17:10.542Z,22.81
2022-08-01T00:18:43.597Z,22.77
2022-08-01T00:20:15.752Z,22.73
2022-08-01T00:21:52.000Z,22.79
2022-08-01T00:23:33.947Z,22.88
2022-08-01T00:25:07.423Z,22.99
2022-08-01T00:26:39.157Z,23.07
2022-08-01T00:28:11.015Z,23.15
2022-08-01T00:30:11.316Z,23.23
2022-08-01T00:31:34.446Z,23.29
2022-08-01T00:33:06.228Z,23.32
2022-08-01T00:34:39.300Z,23.30
2022-08-01T00:36:11.029Z,23.22
2022-08-01T00:37:42.830Z,23.02
2022-08-01T00:39:14.602Z,22.86
2022-08-01T00:40:46.431Z,22.80
2022-08-01T00:42:18.344Z,22.74
2022-08-01T00:43:50.203Z,22.71
2022-08-01T00:45:21.904Z,22.77
2022-08-01T00:46:53.687Z,22.80
2022-08-01T00:48:25.335Z,22.88
2022-08-01T00:49:58.433Z,22.95
2022-08-01T00:51:30.423Z,22.90
2022-08-01T00:53:02.828Z,22.93
2022-08-01T00:54:34.828Z,22.97
2022-08-01T00:56:07.013Z,23.02
2022-08-01T00:58:01.846Z,23.00
2022-08-01T00:59:31.613Z,22.95
2022-08-01T01:01:03.881Z,22.93
2022-08-01T01:02:36.704Z,22.91
2022-08-01T01:04:08.836Z,22.93
2022-08-01T01:05:49.963Z,22.97
2022-08-01T01:07:29.630Z,22.99
2022-08-01T01:09:06.621Z,23.01
2022-08-01T01:10:44.273Z,23.03
2022-08-01T01:12:28.692Z,23.07
2022-08-01T01:14:05.409Z,23.11
2022-08-01T01:15:42.669Z,23.16
2022-08-01T01:17:17.424Z,23.19
2022-08-01T01:19:05.196Z,23.19
2022-08-01T01:20:41.019Z,23.18
2022-08-01T01:22:25.309Z,23.12
2022-08-01T01:24:22.217Z,23.10
2022-08-01T01:26:19.841Z,23.14
2022-08-01T01:27:59.592Z,23.19
2022-08-01T01:30:00.212Z,23.19
2022-08-01T01:31:29.699Z,23.21
2022-08-01T01:33:04.433Z,23.22
2022-08-01T01:34:39.009Z,23.24
2022-08-01T01:36:13.739Z,23.22
2022-08-01T01:37:48.942Z,23.23
2022-08-01T01:39:23.076Z,23.24
2022-08-01T01:40:56.910Z,23.25
2022-08-01T01:42:29.428Z,23.26
2022-08-01T01:44:02.760Z,23.28
2022-08-01T01:45:37.565Z,23.25
2022-08-01T01:47:09.809Z,23.27
2022-08-01T01:48:44.664Z,23.29
2022-08-01T01:50:16.798Z,23.28
2022-08-01T01:52:02.251Z,23.30
2022-08-01T01:53:36.769Z,23.28
2022-08-01T01:55:11.181Z,23.24
2022-08-01T01:56:52.091Z,23.04
2022-08-01T01:58:25.131Z,22.80
2022-08-01T01:59:58.274Z,22.82
2022-08-01T02:01:58.651Z,22.79
2022-08-01T02:03:27.657Z,22.71
2022-08-01T02:05:00.367Z,22.64
2022-08-01T02:06:33.470Z,22.50
2022-08-01T02:08:06.523Z,22.46
2022-08-01T02:09:40.988Z,22.43
2022-08-01T02:11:22.548Z,22.39
2022-08-01T02:12:55.033Z,22.41
2022-08-01T02:14:28.114Z,22.41
2022-08-01T02:16:00.828Z,22.37
2022-08-01T02:17:40.606Z,22.34
2022-08-01T02:19:12.248Z,22.30
2022-08-01T02:20:44.305Z,22.35
2022-08-01T02:22:22.103Z,22.45
2022-08-01T02:23:55.464Z,22.54
2022-08-01T02:25:32.634Z,22.61
2022-08-01T02:27:08.914Z,22.66
2022-08-01T02:28:46.595Z,22.73
2022-08-01T02:30:19.040Z,22.79
2022-08-01T02:31:55.590Z,22.88
2022-08-01T02:33:37.787Z,22.94
2022-08-01T02:35:14.358Z,22.96
2022-08-01T02:36:48.281Z,23.00
2022-08-01T02:38:23.243Z,23.02
2022-08-01T02:39:55.863Z,23.03
2022-08-01T02:41:29.606Z,23.07
2022-08-01T02:43:04.310Z,23.10
2022-08-01T02:44:39.951Z,23.13
2022-08-01T02:46:18.595Z,23.17
2022-08-01T02:47:51.157Z,23.18
2022-08-01T02:49:27.171Z,23.18
2022-08-01T02:51:02.213Z,23.18
2022-08-01T02:52:37.972Z,23.18
2022-08-01T02:54:12.316Z,23.19
2022-08-01T02:55:48.262Z,23.13
2022-08-01T02:57:22.596Z,23.08
2022-08-01T02:58:57.449Z,23.08
2022-08-01T03:00:31.739Z,23.10
2022-08-01T03:02:06.142Z,23.08
2022-08-01T03:03:41.407Z,23.03
2022-08-01T03:05:15.115Z,23.00
2022-08-01T03:06:48.091Z,22.98
2022-08-01T03:08:22.130Z,23.02
2022-08-01T03:09:53.940Z,23.03
2022-08-01T03:11:27.798Z,22.90
2022-08-01T03:13:02.892Z,22.86
2022-08-01T03:14:37.402Z,22.80
2022-08-01T03:16:11.902Z,22.74
2022-08-01T03:17:46.690Z,22.64
2022-08-01T03:19:19.819Z,22.64
2022-08-01T03:20:55.047Z,22.66
2022-08-01T03:22:30.751Z,22.66
2022-08-01T03:24:04.656Z,22.69
2022-08-01T03:25:39.584Z,22.76
2022-08-01T03:27:12.842Z,22.83
2022-08-01T03:28:47.034Z,22.88
2022-08-01T03:30:18.884Z,22.95
2022-08-01T03:31:51.028Z,22.96
2022-08-01T03:33:22.870Z,22.94
2022-08-01T03:34:54.689Z,22.84
2022-08-01T03:36:29.751Z,22.79
2022-08-01T03:38:18.730Z,22.74
2022-08-01T03:39:56.454Z,22.69
2022-08-01T03:41:33.524Z,22.67
2022-08-01T03:43:11.441Z,22.64
2022-08-01T03:44:49.037Z,22.64
2022-08-01T03:46:27.351Z,22.57
2022-08-01T03:48:01.504Z,22.52
2022-08-01T03:49:36.092Z,22.48
2022-08-01T03:51:09.651Z,22.31
2022-08-01T03:52:46.016Z,22.24
2022-08-01T03:54:22.088Z,22.21
2022-08-01T03:55:55.302Z,22.17
2022-08-01T03:57:36.694Z,22.09
2022-08-01T03:59:10.462Z,22.07
2022-08-01T04:00:43.299Z,22.03
2022-08-01T04:02:15.925Z,22.08
2022-08-01T04:03:47.887Z,22.08
2022-08-01T04:05:19.860Z,22.10
2022-08-01T04:06:54.877Z,22.09
2022-08-01T04:08:36.877Z,22.05
2022-08-01T04:10:09.050Z,21.97
2022-08-01T04:11:42.098Z,21.93
2022-08-01T04:13:13.827Z,21.94
2022-08-01T04:14:46.149Z,21.99
2022-08-01T04:16:17.860Z,22.06
2022-08-01T04:17:49.591Z,22.12
2022-08-01T04:19:21.372Z,22.12
2022-08-01T04:20:53.091Z,22.09
2022-08-01T04:22:24.818Z,22.13
2022-08-01T04:24:01.623Z,22.10
2022-08-01T04:25:37.140Z,22.10
2022-08-01T04:27:14.138Z,22.07
2022-08-01T04:28:48.705Z,22.10
2022-08-01T04:30:23.625Z,21.99
2022-08-01T04:31:57.642Z,21.95
2022-08-01T04:33:31.690Z,21.88
2022-08-01T04:35:23.480Z,21.91
2022-08-01T04:37:01.460Z,21.96
2022-08-01T04:38:37.626Z,21.99
2022-08-01T04:40:12.612Z,22.01
2022-08-01T04:41:45.609Z,22.03
2022-08-01T04:43:17.594Z,22.05
2022-08-01T04:44:49.618Z,22.08
2022-08-01T04:46:23.311Z,22.15
2022-08-01T04:47:55.692Z,22.17
2022-08-01T04:49:27.532Z,22.20
2022-08-01T04:50:59.359Z,22.20
2022-08-01T04:52:34.704Z,22.15
2022-08-01T04:54:08.277Z,22.16
2022-08-01T04:55:41.525Z,22.20
2022-08-01T04:57:13.304Z,22.24
2022-08-01T04:58:45.743Z,22.28
2022-08-01T05:00:17.583Z,22.26
2022-08-01T05:01:50.462Z,22.25
2022-08-01T05:03:22.213Z,22.16
2022-08-01T05:04:53.879Z,22.15
2022-08-01T05:06:25.528Z,22.19
2022-08-01T05:07:57.581Z,22.25
2022-08-01T05:09:31.177Z,22.28
2022-08-01T05:11:04.762Z,22.29
2022-08-01T05:12:36.928Z,22.31
2022-08-01T05:14:08.638Z,22.25
2022-08-01T05:15:40.351Z,22.26
2022-08-01T05:17:12.245Z,22.27
2022-08-01T05:18:43.908Z,22.27
2022-08-01T05:20:19.530Z,22.27
2022-08-01T05:21:51.341Z,22.34
2022-08-01T05:23:42.456Z,22.37
2022-08-01T05:25:20.354Z,22.27
2022-08-01T05:27:04.375Z,22.20
2022-08-01T05:28:36.148Z,22.13
2022-08-01T05:30:09.226Z,22.10
2022-08-01T05:31:41.001Z,22.13
2022-08-01T05:33:12.737Z,22.08
2022-08-01T05:34:44.540Z,22.10
2022-08-01T05:36:16.277Z,22.09
2022-08-01T05:37:47.978Z,22.10
2022-08-01T05:39:19.851Z,22.09
2022-08-01T05:40:51.745Z,22.09
2022-08-01T05:42:25.245Z,22.16
2022-08-01T05:43:57.063Z,22.16
2022-08-01T05:45:28.756Z,22.17
2022-08-01T05:47:00.411Z,22.23
2022-08-01T05:48:32.327Z,22.23
2022-08-01T05:50:04.590Z,22.17
2022-08-01T05:51:36.487Z,22.15
2022-08-01T05:53:08.148Z,22.16
2022-08-01T05:54:39.988Z,22.20
2022-08-01T05:56:12.429Z,22.07
2022-08-01T05:57:45.536Z,22.02
2022-08-01T05:59:17.257Z,21.96
2022-08-01T06:00:49.080Z,21.94
2022-08-01T06:02:20.850Z,21.93
2022-08-01T06:03:55.083Z,22.02
2022-08-01T06:05:26.809Z,22.04
2022-08-01T06:06:58.529Z,22.05
2022-08-01T06:08:30.551Z,22.06
2022-08-01T06:10:02.346Z,22.00
2022-08-01T06:11:34.044Z,22.00
2022-08-01T06:13:07.168Z,21.97
2022-08-01T06:14:38.864Z,22.02
2022-08-01T06:16:10.627Z,22.04
2022-08-01T06:17:42.439Z,22.16
2022-08-01T06:19:14.212Z,22.09
2022-08-01T06:20:46.053Z,22.09
2022-08-01T06:22:17.817Z,22.22
2022-08-01T06:23:49.547Z,22.28
2022-08-01T06:25:21.664Z,22.36
2022-08-01T06:26:53.398Z,22.38
2022-08-01T06:28:26.455Z,22.32
2022-08-01T06:29:58.264Z,22.31
2022-08-01T06:31:33.513Z,22.32
2022-08-01T06:33:05.960Z,22.34
2022-08-01T06:34:37.688Z,22.41
2022-08-01T06:36:10.276Z,22.53
2022-08-01T06:37:42.661Z,22.56
2022-08-01T06:39:14.363Z,22.68
2022-08-01T06:40:46.263Z,22.67
2022-08-01T06:42:18.354Z,22.49
2022-08-01T06:43:51.653Z,22.47
2022-08-01T06:45:23.632Z,22.50
2022-08-01T06:46:55.327Z,22.65
2022-08-01T06:48:27.424Z,22.75
2022-08-01T06:49:59.145Z,22.79
2022-08-01T06:51:30.897Z,22.87
2022-08-01T06:53:02.710Z,22.87
2022-08-01T06:56:07.461Z,23.01
2022-08-01T06:57:47.473Z,23.00
2022-08-01T06:59:20.591Z,22.68
2022-08-01T07:00:55.922Z,22.72
2022-08-01T07:02:29.297Z,22.69
2022-08-01T07:04:00.986Z,22.81
2022-08-01T07:05:32.777Z,23.06
2022-08-01T07:07:04.603Z,23.17
2022-08-01T07:08:36.285Z,23.18
2022-08-01T07:10:11.523Z,23.28
2022-08-01T07:11:43.281Z,23.42
2022-08-01T07:13:17.442Z,23.57
2022-08-01T07:14:50.557Z,23.63
2022-08-01T07:16:23.016Z,23.69
2022-08-01T07:17:54.920Z,23.62
2022-08-01T07:19:26.924Z,23.47
2022-08-01T07:20:58.786Z,23.34
2022-08-01T07:22:30.478Z,23.19
2022-08-01T07:24:13.095Z,23.00
2022-08-01T07:25:50.845Z,22.95
2022-08-01T07:27:26.121Z,22.89
2022-08-01T07:28:58.529Z,22.91
2022-08-01T07:30:31.773Z,23.05
2022-08-01T07:32:04.064Z,23.20
2022-08-01T07:33:47.995Z,23.30
2022-08-01T07:35:21.231Z,23.39
2022-08-01T07:36:53.480Z,23.46
2022-08-01T07:38:25.184Z,23.48
2022-08-01T07:39:56.904Z,23.46
2022-08-01T07:41:53.267Z,23.50
2022-08-01T07:43:20.698Z,23.60
2022-08-01T07:44:52.460Z,23.63
2022-08-01T07:46:25.551Z,23.74
2022-08-01T07:47:57.308Z,23.83
2022-08-01T07:49:29.311Z,24.00
2022-08-01T07:51:01.189Z,23.75
2022-08-01T07:52:33.282Z,23.64
2022-08-01T07:54:05.061Z,23.77
2022-08-01T07:55:37.084Z,23.85
2022-08-01T07:57:08.843Z,23.97
2022-08-01T07:58:40.516Z,24.17
2022-08-01T08:00:14.130Z,24.47
2022-08-01T08:01:47.260Z,24.73
2022-08-01T08:03:20.286Z,24.91
2022-08-01T08:04:52.101Z,25.09
2022-08-01T08:06:23.931Z,25.22
2022-08-01T08:07:55.622Z,25.31
2022-08-01T08:09:27.316Z,25.36
2022-08-01T08:10:59.002Z,25.25
2022-08-01T08:12:30.769Z,25.23
2022-08-01T08:14:02.674Z,25.03
2022-08-01T08:15:34.369Z,24.92
2022-08-01T08:17:07.928Z,24.93
2022-08-01T08:18:39.772Z,25.12
2022-08-01T08:20:12.047Z,25.21
2022-08-01T08:21:44.352Z,25.03
2022-08-01T08:23:43.222Z,24.95
2022-08-01T08:25:15.493Z,24.94
2022-08-01T08:26:48.616Z,25.01
2022-08-01T08:28:27.922Z,25.32
2022-08-01T08:30:00.017Z,25.43
2022-08-01T08:31:52.648Z,25.62
2022-08-01T08:33:24.694Z,25.60
2022-08-01T08:34:58.135Z,25.51
2022-08-01T08:36:31.432Z,25.32
2022-08-01T08:38:03.471Z,25.16
2022-08-01T08:39:42.143Z,25.16
2022-08-01T08:41:19.279Z,25.15
2022-08-01T08:42:53.792Z,25.02
2022-08-01T08:44:25.871Z,24.92
2022-08-01T08:46:00.197Z,24.93
2022-08-01T08:47:35.651Z,24.98
2022-08-01T08:49:09.790Z,25.01
2022-08-01T08:50:43.912Z,24.97
2022-08-01T08:52:16.320Z,25.09
2022-08-01T08:53:48.541Z,24.93
2022-08-01T08:55:20.768Z,24.79
2022-08-01T08:56:54.137Z,24.89
2022-08-01T08:58:31.485Z,24.98
2022-08-01T09:00:04.258Z,24.94
2022-08-01T09:01:36.460Z,24.82
2022-08-01T09:03:08.376Z,24.90
2022-08-01T09:04:43.729Z,25.03
2022-08-01T09:06:15.482Z,25.36
2022-08-01T09:07:47.221Z,25.73
2022-08-01T09:09:19.029Z,25.95
2022-08-01T09:10:50.777Z,25.88
2022-08-01T09:12:22.524Z,25.59
2022-08-01T09:14:06.249Z,25.31
2022-08-01T09:15:43.363Z,25.46
2022-08-01T09:17:15.298Z,25.67
2022-08-01T09:18:52.820Z,25.88
2022-08-01T09:20:27.544Z,25.94
2022-08-01T09:22:01.363Z,26.07
2022-08-01T09:23:34.035Z,25.98
2022-08-01T09:25:09.457Z,26.14
2022-08-01T09:26:41.672Z,26.09
2022-08-01T09:28:13.358Z,26.11
2022-08-01T09:29:49.889Z,26.08
2022-08-01T09:31:41.669Z,25.81
2022-08-01T09:33:21.568Z,25.77
2022-08-01T09:34:53.949Z,25.67
2022-08-01T09:36:43.930Z,25.47
2022-08-01T09:38:17.850Z,25.48
2022-08-01T09:39:56.000Z,25.53
2022-08-01T09:41:37.461Z,25.52
2022-08-01T09:43:15.033Z,25.69
2022-08-01T09:44:55.089Z,25.85
2022-08-01T09:46:28.617Z,26.02
2022-08-01T09:48:07.156Z,25.95
2022-08-01T09:49:51.656Z,25.83
2022-08-01T09:51:58.573Z,25.73
2022-08-01T09:53:30.724Z,25.69
2022-08-01T09:55:05.744Z,25.87
2022-08-01T09:56:38.976Z,25.97
2022-08-01T09:58:12.486Z,25.94
2022-08-01T09:59:58.197Z,25.96
2022-08-01T10:01:43.660Z,25.99
2022-08-01T10:03:23.963Z,26.09
2022-08-01T10:05:00.014Z,26.21
2022-08-01T10:06:46.284Z,26.39
2022-08-01T10:08:23.302Z,26.58
2022-08-01T10:09:55.504Z,26.72
2022-08-01T10:11:36.454Z,26.75
2022-08-01T10:13:09.893Z,26.66
2022-08-01T10:14:42.889Z,26.59
2022-08-01T10:16:18.530Z,26.50
2022-08-01T10:17:57.453Z,26.36
2022-08-01T10:19:31.011Z,26.32
2022-08-01T10:21:08.655Z,26.32
2022-08-01T10:22:43.714Z,26.41
2022-08-01T10:24:18.859Z,26.67
2022-08-01T10:25:56.132Z,26.88
2022-08-01T10:27:38.321Z,26.98
2022-08-01T10:29:24.271Z,26.79
2022-08-01T10:31:04.268Z,26.54
2022-08-01T10:32:50.653Z,26.46
2022-08-01T10:34:24.251Z,26.46
2022-08-01T10:35:56.937Z,26.62
2022-08-01T10:37:28.686Z,26.59
2022-08-01T10:39:02.493Z,26.38
2022-08-01T10:40:36.599Z,26.40
2022-08-01T10:42:11.158Z,26.49
2022-08-01T10:43:47.753Z,26.60
2022-08-01T10:45:20.921Z,26.67
2022-08-01T10:46:58.983Z,26.79
2022-08-01T10:48:35.825Z,26.77
2022-08-01T10:50:15.022Z,26.77
2022-08-01T10:51:54.547Z,26.64
2022-08-01T10:53:31.748Z,26.58
2022-08-01T10:55:15.561Z,26.57
2022-08-01T10:56:48.902Z,26.55
2022-08-01T10:58:23.350Z,26.73
2022-08-01T11:00:01.976Z,26.96
2022-08-01T11:01:37.526Z,27.09
2022-08-01T11:03:10.107Z,27.10
2022-08-01T11:04:49.845Z,27.11
2022-08-01T11:06:26.716Z,27.21
2022-08-01T11:08:02.056Z,27.26
2022-08-01T11:09:42.515Z,27.37
2022-08-01T11:11:16.066Z,27.31
2022-08-01T11:12:47.816Z,27.27
2022-08-01T11:14:26.177Z,27.31
2022-08-01T11:16:26.398Z,27.21
2022-08-01T11:18:27.384Z,27.11
2022-08-01T11:20:06.076Z,27.10
2022-08-01T11:22:04.726Z,26.99
2022-08-01T11:23:48.661Z,27.10
2022-08-01T11:25:20.705Z,27.12
2022-08-01T11:27:20.495Z,26.87
2022-08-01T11:29:23.221Z,26.92
2022-08-01T11:31:17.205Z,26.88
2022-08-01T11:33:10.250Z,26.79
2022-08-01T11:34:56.548Z,26.69
2022-08-01T11:36:57.515Z,26.76
2022-08-01T11:38:25.698Z,26.97
2022-08-01T11:40:17.347Z,26.78
2022-08-01T11:41:50.243Z,26.76
2022-08-01T11:43:22.734Z,26.80
2022-08-01T11:44:55.293Z,26.93
2022-08-01T11:46:55.148Z,26.88
2022-08-01T11:48:28.826Z,26.76
2022-08-01T11:50:03.773Z,26.91
2022-08-01T11:51:35.875Z,27.09
2022-08-01T11:53:09.120Z,27.01
2022-08-01T11:54:45.588Z,26.93
2022-08-01T11:56:17.642Z,26.96
2022-08-01T11:57:49.509Z,27.10
2022-08-01T11:59:22.199Z,27.26
2022-08-01T12:00:55.254Z,27.27
2022-08-01T12:02:30.417Z,27.38
2022-08-01T12:04:02.809Z,27.55
2022-08-01T12:05:43.267Z,27.70
2022-08-01T12:07:15.707Z,27.83
2022-08-01T12:08:47.465Z,27.85
2022-08-01T12:10:21.855Z,27.85
2022-08-01T12:11:53.720Z,27.82
2022-08-01T12:13:25.989Z,27.78
2022-08-01T12:14:59.710Z,27.68
2022-08-01T12:16:32.955Z,27.44
2022-08-01T12:18:06.944Z,27.23
2022-08-01T12:19:40.059Z,27.03
2022-08-01T12:21:16.115Z,27.04
2022-08-01T12:22:48.129Z,27.08
2022-08-01T12:24:23.076Z,27.29
2022-08-01T12:25:54.851Z,27.31
2022-08-01T12:27:28.831Z,27.56
2022-08-01T12:29:00.547Z,27.80
2022-08-01T12:30:38.327Z,28.06
2022-08-01T12:32:27.532Z,28.31
2022-08-01T12:33:59.823Z,28.45
2022-08-01T12:35:32.444Z,28.45
2022-08-01T12:37:05.971Z,28.57
2022-08-01T12:38:37.885Z,28.58
2022-08-01T12:40:15.674Z,28.59
2022-08-01T12:41:47.434Z,28.50
2022-08-01T12:43:29.491Z,28.55
2022-08-01T12:45:01.686Z,28.24
2022-08-01T12:46:33.568Z,28.20
2022-08-01T12:48:09.386Z,28.43
2022-08-01T12:49:44.310Z,28.69
2022-08-01T12:51:16.201Z,29.01
2022-08-01T12:52:49.791Z,29.30
2022-08-01T12:54:23.315Z,29.42
2022-08-01T12:55:58.465Z,29.35
2022-08-01T12:57:32.082Z,29.24
2022-08-01T12:59:23.323Z,29.17
2022-08-01T13:01:04.787Z,29.35
2022-08-01T13:02:36.992Z,29.17
2022-08-01T13:04:08.819Z,29.27
2022-08-01T13:05:45.963Z,29.24
2022-08-01T13:07:17.780Z,29.29
2022-08-01T13:08:50.991Z,29.13
2022-08-01T13:10:27.876Z,29.32
2022-08-01T13:12:10.285Z,29.21
2022-08-01T13:13:44.692Z,29.28
2022-08-01T13:15:29.266Z,29.32
2022-08-01T13:17:00.938Z,28.86
2022-08-01T13:18:33.949Z,28.78
2022-08-01T13:20:07.103Z,28.93
2022-08-01T13:21:53.094Z,28.96
2022-08-01T13:24:01.596Z,28.81
2022-08-01T13:25:22.653Z,28.89
2022-08-01T13:27:00.961Z,29.01
2022-08-01T13:28:33.699Z,28.80
2022-08-01T13:30:13.233Z,28.87
2022-08-01T13:31:45.140Z,28.99
2022-08-01T13:33:16.974Z,29.15
2022-08-01T13:34:49.475Z,29.38
2022-08-01T13:36:28.336Z,29.52
2022-08-01T13:38:00.159Z,29.72
2022-08-01T13:39:41.344Z,29.64
2022-08-01T13:41:16.692Z,29.74
2022-08-01T13:42:49.244Z,29.71
2022-08-01T13:44:21.018Z,29.72
2022-08-01T13:45:52.782Z,29.85
2022-08-01T13:47:33.421Z,29.61
2022-08-01T13:49:16.147Z,29.45
2022-08-01T13:51:02.056Z,29.63
2022-08-01T13:52:40.042Z,29.68
2022-08-01T13:54:11.754Z,29.64
2022-08-01T13:55:43.487Z,29.66
2022-08-01T13:57:17.441Z,29.71
2022-08-01T13:58:49.272Z,29.67
2022-08-01T14:00:21.288Z,29.52
2022-08-01T14:01:53.184Z,29.46
2022-08-01T14:03:33.607Z,29.46
2022-08-01T14:05:06.686Z,29.42
2022-08-01T14:06:38.419Z,29.61
2022-08-01T14:08:10.656Z,29.63
2022-08-01T14:09:44.811Z,29.69
2022-08-01T14:11:37.280Z,29.55
2022-08-01T14:13:11.770Z,29.57
2022-08-01T14:14:44.740Z,29.62
2022-08-01T14:16:17.604Z,29.60
2022-08-01T14:17:49.301Z,29.55
2022-08-01T14:19:36.879Z,29.58
2022-08-01T14:21:10.704Z,29.57
2022-08-01T14:22:42.461Z,29.54
2022-08-01T14:24:14.226Z,29.49
2022-08-01T14:26:01.564Z,29.45
2022-08-01T14:27:37.183Z,29.41
2022-08-01T14:29:10.333Z,29.49
2022-08-01T14:30:43.532Z,29.52
2022-08-01T14:32:15.309Z,29.48
2022-08-01T14:33:47.126Z,29.52
2022-08-01T14:35:18.847Z,29.65
2022-08-01T14:36:50.552Z,29.74
2022-08-01T14:38:31.447Z,29.78
2022-08-01T14:40:08.063Z,29.66
2022-08-01T14:41:39.905Z,29.74
2022-08-01T14:43:16.014Z,29.85
2022-08-01T14:44:58.367Z,29.93
2022-08-01T14:46:31.470Z,29.93
2022-08-01T14:48:05.269Z,29.90
2022-08-01T14:49:41.837Z,29.95
2022-08-01T14:51:17.500Z,30.17
2022-08-01T14:52:49.269Z,30.33
2022-08-01T14:54:27.039Z,30.38
2022-08-01T14:56:01.311Z,30.34
2022-08-01T14:57:33.012Z,30.07
2022-08-01T14:59:05.038Z,29.83
2022-08-01T15:00:58.562Z,29.95
2022-08-01T15:02:31.502Z,30.21
2022-08-01T15:04:04.563Z,30.38
2022-08-01T15:05:37.288Z,30.44
2022-08-01T15:07:09.109Z,30.64
2022-08-01T15:08:41.273Z,30.72
2022-08-01T15:10:13.478Z,30.64
2022-08-01T15:11:47.149Z,30.32
2022-08-01T15:13:19.278Z,30.21
2022-08-01T15:14:51.507Z,30.18
2022-08-01T15:16:25.369Z,30.24
2022-08-01T15:17:57.957Z,30.31
2022-08-01T15:19:29.921Z,30.20
2022-08-01T15:21:01.701Z,30.14
2022-08-01T15:22:34.197Z,30.19
2022-08-01T15:24:07.281Z,30.04
2022-08-01T15:25:41.457Z,30.08
2022-08-01T15:27:14.216Z,30.24
2022-08-01T15:28:45.951Z,30.21
2022-08-01T15:30:23.592Z,30.27
2022-08-01T15:32:00.939Z,30.31
2022-08-01T15:33:32.731Z,30.27
2022-08-01T15:35:06.169Z,30.11
2022-08-01T15:36:42.002Z,30.09
2022-08-01T15:38:15.349Z,29.96
2022-08-01T15:39:47.437Z,29.97
2022-08-01T15:41:19.296Z,29.90
2022-08-01T15:42:51.172Z,29.70
2022-08-01T15:44:23.211Z,29.73
2022-08-01T15:45:55.976Z,29.33
2022-08-01T15:47:29.435Z,28.77
2022-08-01T15:49:03.215Z,28.48
2022-08-01T15:50:39.064Z,28.36
2022-08-01T15:52:22.263Z,28.40
2022-08-01T15:53:54.814Z,28.67
2022-08-01T15:55:27.218Z,28.79
2022-08-01T15:56:59.355Z,28.86
2022-08-01T15:58:31.137Z,28.97
2022-08-01T16:00:05.392Z,29.05
2022-08-01T16:01:44.059Z,29.00
2022-08-01T16:03:17.513Z,28.77
2022-08-01T16:04:51.780Z,28.75
2022-08-01T16:06:24.317Z,28.74
2022-08-01T16:07:59.623Z,28.71
2022-08-01T16:09:33.591Z,28.69
2022-08-01T16:11:05.598Z,28.68
2022-08-01T16:12:37.654Z,28.66
2022-08-01T16:14:09.462Z,28.43
2022-08-01T16:15:41.197Z,28.02
2022-08-01T16:17:12.881Z,28.04
2022-08-01T16:18:46.278Z,27.90
2022-08-01T16:20:25.577Z,28.03
2022-08-01T16:21:57.356Z,28.22
2022-08-01T16:23:29.116Z,28.31
2022-08-01T16:25:01.125Z,28.31
2022-08-01T16:26:33.021Z,28.35
2022-08-01T16:28:05.196Z,28.58
2022-08-01T16:29:37.045Z,28.77
2022-08-01T16:31:16.995Z,28.83
2022-08-01T16:32:59.508Z,28.93
2022-08-01T16:34:42.027Z,28.88
2022-08-01T16:36:18.842Z,28.54
2022-08-01T16:37:51.418Z,28.41
2022-08-01T16:39:23.750Z,28.54
2022-08-01T16:40:56.160Z,28.68
2022-08-01T16:42:29.940Z,28.82
2022-08-01T16:44:02.460Z,28.90
2022-08-01T16:45:34.224Z,28.84
2022-08-01T16:47:06.229Z,28.81
2022-08-01T16:48:41.551Z,28.84
2022-08-01T16:50:14.822Z,28.77
2022-08-01T16:51:48.824Z,28.69
2022-08-01T16:53:22.408Z,28.30
2022-08-01T16:54:54.147Z,28.09
2022-08-01T16:56:25.911Z,28.08
2022-08-01T16:57:57.775Z,28.13
2022-08-01T16:59:29.686Z,28.19
2022-08-01T17:01:58.882Z,28.09
2022-08-01T17:02:53.431Z,27.84
2022-08-01T17:04:25.187Z,27.93
2022-08-01T17:05:58.319Z,27.95
2022-08-01T17:07:30.198Z,27.81
2022-08-01T17:09:04.514Z,27.49
2022-08-01T17:10:37.008Z,27.36
2022-08-01T17:12:08.950Z,27.22
2022-08-01T17:13:40.889Z,27.06
2022-08-01T17:15:12.651Z,26.93
2022-08-01T17:16:44.528Z,26.73
2022-08-01T17:18:17.752Z,26.71
2022-08-01T17:19:50.557Z,26.79
2022-08-01T17:21:33.910Z,27.06
2022-08-01T17:23:05.936Z,27.17
2022-08-01T17:24:38.256Z,27.35
2022-08-01T17:26:10.255Z,27.50
2022-08-01T17:27:42.182Z,27.26
2022-08-01T17:29:17.008Z,27.02
2022-08-01T17:30:48.902Z,27.06
2022-08-01T17:32:20.692Z,27.00
2022-08-01T17:33:54.920Z,26.74
2022-08-01T17:35:27.158Z,26.51
2022-08-01T17:37:00.497Z,26.33
2022-08-01T17:38:32.509Z,26.17
2022-08-01T17:40:24.241Z,26.13
2022-08-01T17:41:57.233Z,26.22
2022-08-01T17:43:29.207Z,26.22
2022-08-01T17:45:01.179Z,26.31
2022-08-01T17:46:35.524Z,26.43
2022-08-01T17:48:07.286Z,26.47
2022-08-01T17:49:54.229Z,26.33
2022-08-01T17:51:26.690Z,26.29
2022-08-01T17:52:59.960Z,26.37
2022-08-01T17:54:31.753Z,26.39
2022-08-01T17:56:07.625Z,26.40
2022-08-01T17:57:39.361Z,26.39
2022-08-01T17:59:11.175Z,26.43
2022-08-01T18:00:42.940Z,26.41
2022-08-01T18:02:14.784Z,26.45
2022-08-01T18:03:46.796Z,26.47
2022-08-01T18:05:18.500Z,26.50
2022-08-01T18:06:58.308Z,26.55
2022-08-01T18:08:32.202Z,26.55
2022-08-01T18:10:05.831Z,26.43
2022-08-01T18:11:43.831Z,26.36
2022-08-01T18:13:18.295Z,26.27
2022-08-01T18:14:52.372Z,26.28
2022-08-01T18:16:24.256Z,26.31
2022-08-01T18:17:57.905Z,26.26
2022-08-01T18:19:29.721Z,26.02
2022-08-01T18:21:01.857Z,25.84
2022-08-01T18:22:34.201Z,25.86
2022-08-01T18:24:08.780Z,25.64
2022-08-01T18:25:40.948Z,25.46
2022-08-01T18:27:12.726Z,25.43
2022-08-01T18:28:46.493Z,25.42
2022-08-01T18:30:18.669Z,25.49
2022-08-01T18:31:51.633Z,25.24
2022-08-01T18:33:23.553Z,24.98
2022-08-01T18:34:55.322Z,24.87
2022-08-01T18:36:33.372Z,24.82
2022-08-01T18:38:05.909Z,24.90
2022-08-01T18:39:39.006Z,24.96
2022-08-01T18:41:11.319Z,24.97
2022-08-01T18:42:43.016Z,24.98
2022-08-01T18:44:15.646Z,24.97
2022-08-01T18:45:47.458Z,24.85
2022-08-01T18:47:19.152Z,24.79
2022-08-01T18:48:50.955Z,24.69
2022-08-01T18:50:27.001Z,24.71
2022-08-01T18:51:58.979Z,24.74
2022-08-01T18:53:30.675Z,24.74
2022-08-01T18:55:04.253Z,24.78
2022-08-01T18:56:35.990Z,24.61
2022-08-01T18:58:07.745Z,24.55
2022-08-01T18:59:39.442Z,24.54
2022-08-01T19:01:13.524Z,24.48
2022-08-01T19:02:45.687Z,24.42
2022-08-01T19:04:18.030Z,24.42
2022-08-01T19:05:51.044Z,24.41
2022-08-01T19:07:33.602Z,24.36
2022-08-01T19:09:14.540Z,24.32
2022-08-01T19:10:53.877Z,24.23
2022-08-01T19:12:25.739Z,24.16
2022-08-01T19:13:57.521Z,24.14
2022-08-01T19:15:29.299Z,24.19
2022-08-01T19:17:01.009Z,24.11
2022-08-01T19:18:33.665Z,24.01
2022-08-01T19:20:08.405Z,23.94
2022-08-01T19:21:44.593Z,23.84
2022-08-01T19:23:35.332Z,23.79
2022-08-01T19:25:07.835Z,23.86
2022-08-01T19:26:46.877Z,23.97
2022-08-01T19:28:21.706Z,24.04
2022-08-01T19:29:56.234Z,24.10
2022-08-01T19:31:29.472Z,24.13
2022-08-01T19:33:01.310Z,24.19
2022-08-01T19:34:35.623Z,24.24
2022-08-01T19:36:08.721Z,24.27
2022-08-01T19:37:50.427Z,24.30
2022-08-01T19:39:27.093Z,24.32
2022-08-01T19:40:59.388Z,24.35
2022-08-01T19:42:32.609Z,24.38
2022-08-01T19:44:07.130Z,24.42
2022-08-01T19:45:40.518Z,24.40
2022-08-01T19:47:14.073Z,24.33
2022-08-01T19:48:51.548Z,24.25
2022-08-01T19:50:25.864Z,24.24
2022-08-01T19:52:01.265Z,24.30
2022-08-01T19:53:37.611Z,24.35
2022-08-01T19:55:10.330Z,24.32
2022-08-01T19:56:45.515Z,24.25
2022-08-01T19:58:28.202Z,24.17
2022-08-01T20:00:02.113Z,24.06
2022-08-01T20:01:37.016Z,23.91
2022-08-01T20:03:10.040Z,23.77
2022-08-01T20:04:42.913Z,23.69
2022-08-01T20:06:14.650Z,23.62
2022-08-01T20:07:46.984Z,23.64
2022-08-01T20:09:19.006Z,23.70
2022-08-01T20:10:51.420Z,23.76
2022-08-01T20:12:23.570Z,23.83
2022-08-01T20:13:57.157Z,23.89
2022-08-01T20:15:29.215Z,23.89
2022-08-01T20:17:01.102Z,23.92
2022-08-01T20:18:32.897Z,23.86
2022-08-01T20:20:05.747Z,23.82
2022-08-01T20:21:38.193Z,23.79
2022-08-01T20:23:18.334Z,23.77
2022-08-01T20:24:57.484Z,23.78